sensor_id;sensor_type;location;lat;lon;timestamp;P1;durP1;ratioP1;P2;durP2;ratioP2
7669;SDS011;3877;42.562;27.636;2024-02-15T00:00:39;4.50;;;2.17;;
7669;SDS011;3877;42.562;27.636;2024-02-15T00:03:06;3.93;;;2.10;;
7669;SDS011;3877;42.562;27.636;2024-02-15T00:05:34;4.83;;;2.00;;
7669;SDS011;3877;42.562;27.636;2024-02-15T00:08:02;4.67;;;1.77;;
7669;SDS011;3877;42.562;27.636;2024-02-15T00:10:29;3.20;;;1.93;;
7669;SDS011;3877;42.562;27.636;2024-02-15T00:12:56;3.33;;;1.90;;
7669;SDS011;3877;42.562;27.636;2024-02-15T00:15:23;6.77;;;1.80;;
7669;SDS011;3877;42.562;27.636;2024-02-15T00:17:50;2.27;;;1.60;;
7669;SDS011;3877;42.562;27.636;2024-02-15T00:20:18;2.20;;;1.53;;
7669;SDS011;3877;42.562;27.636;2024-02-15T00:22:47;4.93;;;1.73;;
7669;SDS011;3877;42.562;27.636;2024-02-15T00:25:14;4.60;;;1.70;;
7669;SDS011;3877;42.562;27.636;2024-02-15T00:27:41;5.17;;;2.20;;
7669;SDS011;3877;42.562;27.636;2024-02-15T00:30:09;3.87;;;2.10;;
7669;SDS011;3877;42.562;27.636;2024-02-15T00:32:36;7.70;;;2.00;;
7669;SDS011;3877;42.562;27.636;2024-02-15T00:35:03;2.43;;;1.77;;
7669;SDS011;3877;42.562;27.636;2024-02-15T00:37:33;2.90;;;1.80;;
7669;SDS011;3877;42.562;27.636;2024-02-15T00:40:00;2.00;;;1.40;;
7669;SDS011;3877;42.562;27.636;2024-02-15T00:42:29;1.80;;;1.60;;
7669;SDS011;3877;42.562;27.636;2024-02-15T00:44:57;5.33;;;1.73;;
7669;SDS011;3877;42.562;27.636;2024-02-15T00:47:24;3.83;;;2.03;;
7669;SDS011;3877;42.562;27.636;2024-02-15T00:49:51;3.23;;;1.90;;
7669;SDS011;3877;42.562;27.636;2024-02-15T00:52:18;4.97;;;2.40;;
7669;SDS011;3877;42.562;27.636;2024-02-15T00:54:45;3.73;;;1.93;;
7669;SDS011;3877;42.562;27.636;2024-02-15T00:57:14;3.80;;;2.20;;
7669;SDS011;3877;42.562;27.636;2024-02-15T00:59:41;1.80;;;1.70;;
7669;SDS011;3877;42.562;27.636;2024-02-15T01:02:08;5.60;;;2.20;;
7669;SDS011;3877;42.562;27.636;2024-02-15T01:04:35;3.83;;;1.70;;
7669;SDS011;3877;42.562;27.636;2024-02-15T01:07:03;3.57;;;1.87;;
7669;SDS011;3877;42.562;27.636;2024-02-15T01:09:30;6.30;;;2.13;;
7669;SDS011;3877;42.562;27.636;2024-02-15T01:11:57;4.53;;;1.70;;
7669;SDS011;3877;42.562;27.636;2024-02-15T01:14:25;3.37;;;1.60;;
7669;SDS011;3877;42.562;27.636;2024-02-15T01:16:55;3.03;;;1.70;;
7669;SDS011;3877;42.562;27.636;2024-02-15T01:19:22;6.17;;;2.03;;
7669;SDS011;3877;42.562;27.636;2024-02-15T01:21:49;4.27;;;1.43;;
7669;SDS011;3877;42.562;27.636;2024-02-15T01:24:17;2.27;;;1.80;;
7669;SDS011;3877;42.562;27.636;2024-02-15T01:26:43;2.50;;;1.70;;
7669;SDS011;3877;42.562;27.636;2024-02-15T01:29:13;2.27;;;1.63;;
7669;SDS011;3877;42.562;27.636;2024-02-15T01:31:42;4.43;;;2.10;;
7669;SDS011;3877;42.562;27.636;2024-02-15T01:34:09;2.40;;;2.00;;
7669;SDS011;3877;42.562;27.636;2024-02-15T01:36:36;3.30;;;2.17;;
7669;SDS011;3877;42.562;27.636;2024-02-15T01:39:03;3.83;;;2.10;;
7669;SDS011;3877;42.562;27.636;2024-02-15T01:41:30;4.87;;;2.07;;
7669;SDS011;3877;42.562;27.636;2024-02-15T01:43:57;3.93;;;1.80;;
7669;SDS011;3877;42.562;27.636;2024-02-15T01:46:25;4.60;;;1.90;;
7669;SDS011;3877;42.562;27.636;2024-02-15T01:48:53;2.00;;;1.67;;
7669;SDS011;3877;42.562;27.636;2024-02-15T01:51:21;2.57;;;1.80;;
7669;SDS011;3877;42.562;27.636;2024-02-15T01:53:50;1.63;;;1.53;;
7669;SDS011;3877;42.562;27.636;2024-02-15T01:56:19;2.83;;;1.87;;
7669;SDS011;3877;42.562;27.636;2024-02-15T01:58:46;2.97;;;1.90;;
7669;SDS011;3877;42.562;27.636;2024-02-15T02:01:13;2.70;;;1.80;;
7669;SDS011;3877;42.562;27.636;2024-02-15T02:03:41;4.77;;;2.10;;
7669;SDS011;3877;42.562;27.636;2024-02-15T02:06:09;5.57;;;2.30;;
7669;SDS011;3877;42.562;27.636;2024-02-15T02:08:37;3.37;;;2.23;;
7669;SDS011;3877;42.562;27.636;2024-02-15T02:11:03;3.73;;;2.20;;
7669;SDS011;3877;42.562;27.636;2024-02-15T02:13:30;6.73;;;2.43;;
7669;SDS011;3877;42.562;27.636;2024-02-15T02:15:58;3.43;;;1.93;;
7669;SDS011;3877;42.562;27.636;2024-02-15T02:18:25;2.13;;;1.87;;
7669;SDS011;3877;42.562;27.636;2024-02-15T02:20:52;3.77;;;2.50;;
7669;SDS011;3877;42.562;27.636;2024-02-15T02:23:21;5.13;;;2.43;;
7669;SDS011;3877;42.562;27.636;2024-02-15T02:25:51;2.87;;;2.30;;
7669;SDS011;3877;42.562;27.636;2024-02-15T02:28:19;3.97;;;2.40;;
7669;SDS011;3877;42.562;27.636;2024-02-15T02:30:47;5.17;;;2.50;;
7669;SDS011;3877;42.562;27.636;2024-02-15T02:33:14;3.80;;;2.03;;
7669;SDS011;3877;42.562;27.636;2024-02-15T02:35:44;3.67;;;2.20;;
7669;SDS011;3877;42.562;27.636;2024-02-15T02:38:11;5.83;;;2.47;;
7669;SDS011;3877;42.562;27.636;2024-02-15T02:40:38;5.60;;;2.60;;
7669;SDS011;3877;42.562;27.636;2024-02-15T02:43:06;3.10;;;2.60;;
7669;SDS011;3877;42.562;27.636;2024-02-15T02:45:34;4.03;;;2.80;;
7669;SDS011;3877;42.562;27.636;2024-02-15T02:48:00;6.57;;;2.70;;
7669;SDS011;3877;42.562;27.636;2024-02-15T02:50:27;4.37;;;2.77;;
7669;SDS011;3877;42.562;27.636;2024-02-15T02:52:55;6.70;;;2.83;;
7669;SDS011;3877;42.562;27.636;2024-02-15T02:55:22;5.17;;;2.93;;
7669;SDS011;3877;42.562;27.636;2024-02-15T02:57:49;3.63;;;2.73;;
7669;SDS011;3877;42.562;27.636;2024-02-15T03:00:18;4.57;;;2.27;;
7669;SDS011;3877;42.562;27.636;2024-02-15T03:02:45;3.97;;;2.43;;
7669;SDS011;3877;42.562;27.636;2024-02-15T03:05:12;6.17;;;2.70;;
7669;SDS011;3877;42.562;27.636;2024-02-15T03:07:40;4.53;;;2.60;;
7669;SDS011;3877;42.562;27.636;2024-02-15T03:10:08;5.17;;;2.90;;
7669;SDS011;3877;42.562;27.636;2024-02-15T03:12:35;4.53;;;2.70;;
7669;SDS011;3877;42.562;27.636;2024-02-15T03:15:02;3.47;;;2.60;;
7669;SDS011;3877;42.562;27.636;2024-02-15T03:17:31;5.93;;;2.90;;
7669;SDS011;3877;42.562;27.636;2024-02-15T03:19:57;3.27;;;2.60;;
7669;SDS011;3877;42.562;27.636;2024-02-15T03:22:25;5.70;;;2.90;;
7669;SDS011;3877;42.562;27.636;2024-02-15T03:24:53;5.17;;;2.80;;
7669;SDS011;3877;42.562;27.636;2024-02-15T03:27:20;4.00;;;2.50;;
7669;SDS011;3877;42.562;27.636;2024-02-15T03:29:48;5.17;;;2.47;;
7669;SDS011;3877;42.562;27.636;2024-02-15T03:32:15;5.53;;;2.27;;
7669;SDS011;3877;42.562;27.636;2024-02-15T03:34:43;3.63;;;2.30;;
7669;SDS011;3877;42.562;27.636;2024-02-15T03:37:10;5.37;;;2.37;;
7669;SDS011;3877;42.562;27.636;2024-02-15T03:39:38;4.47;;;2.00;;
7669;SDS011;3877;42.562;27.636;2024-02-15T03:42:05;3.83;;;2.40;;
7669;SDS011;3877;42.562;27.636;2024-02-15T03:44:32;8.40;;;2.70;;
7669;SDS011;3877;42.562;27.636;2024-02-15T03:46:59;4.47;;;2.43;;
7669;SDS011;3877;42.562;27.636;2024-02-15T03:49:26;5.63;;;2.70;;
7669;SDS011;3877;42.562;27.636;2024-02-15T03:51:54;3.50;;;2.57;;
7669;SDS011;3877;42.562;27.636;2024-02-15T03:54:25;4.30;;;2.50;;
7669;SDS011;3877;42.562;27.636;2024-02-15T03:56:52;6.83;;;2.97;;
7669;SDS011;3877;42.562;27.636;2024-02-15T03:59:20;5.00;;;2.67;;
7669;SDS011;3877;42.562;27.636;2024-02-15T04:01:50;7.17;;;2.90;;
7669;SDS011;3877;42.562;27.636;2024-02-15T04:04:17;3.50;;;2.53;;
7669;SDS011;3877;42.562;27.636;2024-02-15T04:06:46;8.37;;;3.00;;
7669;SDS011;3877;42.562;27.636;2024-02-15T04:09:15;3.93;;;2.40;;
7669;SDS011;3877;42.562;27.636;2024-02-15T04:11:42;5.50;;;2.40;;
7669;SDS011;3877;42.562;27.636;2024-02-15T04:14:09;2.47;;;2.03;;
7669;SDS011;3877;42.562;27.636;2024-02-15T04:16:37;2.80;;;2.07;;
7669;SDS011;3877;42.562;27.636;2024-02-15T04:19:04;3.63;;;2.13;;
7669;SDS011;3877;42.562;27.636;2024-02-15T04:21:31;3.70;;;2.57;;
7669;SDS011;3877;42.562;27.636;2024-02-15T04:23:58;3.40;;;2.63;;
7669;SDS011;3877;42.562;27.636;2024-02-15T04:26:27;5.50;;;2.70;;
7669;SDS011;3877;42.562;27.636;2024-02-15T04:28:55;3.23;;;1.80;;
7669;SDS011;3877;42.562;27.636;2024-02-15T04:31:23;2.63;;;2.37;;
7669;SDS011;3877;42.562;27.636;2024-02-15T04:33:52;5.07;;;2.47;;
7669;SDS011;3877;42.562;27.636;2024-02-15T04:36:19;6.00;;;2.63;;
7669;SDS011;3877;42.562;27.636;2024-02-15T04:38:49;3.67;;;2.40;;
7669;SDS011;3877;42.562;27.636;2024-02-15T04:41:16;4.63;;;2.70;;
7669;SDS011;3877;42.562;27.636;2024-02-15T04:43:49;3.83;;;2.97;;
7669;SDS011;3877;42.562;27.636;2024-02-15T04:46:17;6.17;;;2.90;;
7669;SDS011;3877;42.562;27.636;2024-02-15T04:48:47;5.83;;;2.80;;
7669;SDS011;3877;42.562;27.636;2024-02-15T04:51:15;3.27;;;2.20;;
7669;SDS011;3877;42.562;27.636;2024-02-15T04:53:43;3.13;;;2.03;;
7669;SDS011;3877;42.562;27.636;2024-02-15T04:56:11;2.77;;;2.30;;
7669;SDS011;3877;42.562;27.636;2024-02-15T04:58:39;4.63;;;2.57;;
7669;SDS011;3877;42.562;27.636;2024-02-15T05:01:14;6.80;;;2.60;;
7669;SDS011;3877;42.562;27.636;2024-02-15T05:03:42;4.27;;;2.37;;
7669;SDS011;3877;42.562;27.636;2024-02-15T05:06:09;4.20;;;2.30;;
7669;SDS011;3877;42.562;27.636;2024-02-15T05:08:38;4.90;;;2.53;;
7669;SDS011;3877;42.562;27.636;2024-02-15T05:11:08;5.50;;;2.87;;
7669;SDS011;3877;42.562;27.636;2024-02-15T05:13:39;4.10;;;2.20;;
7669;SDS011;3877;42.562;27.636;2024-02-15T05:16:06;3.37;;;2.20;;
7669;SDS011;3877;42.562;27.636;2024-02-15T05:18:35;3.80;;;2.37;;
7669;SDS011;3877;42.562;27.636;2024-02-15T05:21:03;5.73;;;2.50;;
7669;SDS011;3877;42.562;27.636;2024-02-15T05:23:33;4.93;;;2.30;;
7669;SDS011;3877;42.562;27.636;2024-02-15T05:26:00;6.03;;;2.30;;
7669;SDS011;3877;42.562;27.636;2024-02-15T05:28:27;3.97;;;2.30;;
7669;SDS011;3877;42.562;27.636;2024-02-15T05:31:08;3.93;;;2.30;;
7669;SDS011;3877;42.562;27.636;2024-02-15T05:33:37;4.67;;;1.97;;
7669;SDS011;3877;42.562;27.636;2024-02-15T05:36:06;1.70;;;1.60;;
7669;SDS011;3877;42.562;27.636;2024-02-15T05:38:34;3.30;;;2.30;;
7669;SDS011;3877;42.562;27.636;2024-02-15T05:41:01;4.23;;;2.50;;
7669;SDS011;3877;42.562;27.636;2024-02-15T05:43:28;3.57;;;2.27;;
7669;SDS011;3877;42.562;27.636;2024-02-15T05:45:55;2.70;;;1.87;;
7669;SDS011;3877;42.562;27.636;2024-02-15T05:48:23;4.70;;;2.17;;
7669;SDS011;3877;42.562;27.636;2024-02-15T05:50:54;3.20;;;2.10;;
7669;SDS011;3877;42.562;27.636;2024-02-15T05:53:22;4.73;;;2.50;;
7669;SDS011;3877;42.562;27.636;2024-02-15T05:55:50;4.43;;;2.27;;
7669;SDS011;3877;42.562;27.636;2024-02-15T05:58:17;5.80;;;2.93;;
7669;SDS011;3877;42.562;27.636;2024-02-15T06:00:44;3.80;;;2.57;;
7669;SDS011;3877;42.562;27.636;2024-02-15T06:03:15;3.90;;;2.60;;
7669;SDS011;3877;42.562;27.636;2024-02-15T06:05:42;5.50;;;2.43;;
7669;SDS011;3877;42.562;27.636;2024-02-15T06:08:11;3.47;;;2.40;;
7669;SDS011;3877;42.562;27.636;2024-02-15T06:10:38;6.30;;;2.90;;
7669;SDS011;3877;42.562;27.636;2024-02-15T06:13:06;3.30;;;2.33;;
7669;SDS011;3877;42.562;27.636;2024-02-15T06:15:34;5.63;;;2.63;;
7669;SDS011;3877;42.562;27.636;2024-02-15T06:18:01;2.87;;;2.20;;
7669;SDS011;3877;42.562;27.636;2024-02-15T06:20:29;6.33;;;2.80;;
7669;SDS011;3877;42.562;27.636;2024-02-15T06:22:57;5.10;;;2.67;;
7669;SDS011;3877;42.562;27.636;2024-02-15T06:25:25;4.10;;;2.50;;
7669;SDS011;3877;42.562;27.636;2024-02-15T06:27:52;6.67;;;2.60;;
7669;SDS011;3877;42.562;27.636;2024-02-15T06:30:24;4.70;;;2.23;;
7669;SDS011;3877;42.562;27.636;2024-02-15T06:33:08;5.47;;;2.80;;
7669;SDS011;3877;42.562;27.636;2024-02-15T06:35:53;4.10;;;2.73;;
7669;SDS011;3877;42.562;27.636;2024-02-15T06:38:37;3.30;;;2.57;;
7669;SDS011;3877;42.562;27.636;2024-02-15T06:41:22;3.67;;;2.20;;
7669;SDS011;3877;42.562;27.636;2024-02-15T06:43:52;2.80;;;2.03;;
7669;SDS011;3877;42.562;27.636;2024-02-15T06:46:20;3.47;;;2.40;;
7669;SDS011;3877;42.562;27.636;2024-02-15T06:48:47;5.40;;;2.30;;
7669;SDS011;3877;42.562;27.636;2024-02-15T06:51:14;2.80;;;2.13;;
7669;SDS011;3877;42.562;27.636;2024-02-15T06:53:42;2.70;;;1.87;;
7669;SDS011;3877;42.562;27.636;2024-02-15T06:56:09;2.97;;;2.23;;
7669;SDS011;3877;42.562;27.636;2024-02-15T06:58:38;2.30;;;2.07;;
7669;SDS011;3877;42.562;27.636;2024-02-15T07:01:07;3.40;;;2.77;;
7669;SDS011;3877;42.562;27.636;2024-02-15T07:03:38;3.93;;;2.67;;
7669;SDS011;3877;42.562;27.636;2024-02-15T07:06:05;5.17;;;3.47;;
7669;SDS011;3877;42.562;27.636;2024-02-15T07:08:32;7.13;;;3.17;;
7669;SDS011;3877;42.562;27.636;2024-02-15T07:11:00;3.43;;;2.57;;
7669;SDS011;3877;42.562;27.636;2024-02-15T07:13:29;5.17;;;3.10;;
7669;SDS011;3877;42.562;27.636;2024-02-15T07:15:57;3.53;;;2.23;;
7669;SDS011;3877;42.562;27.636;2024-02-15T07:18:24;2.10;;;1.90;;
7669;SDS011;3877;42.562;27.636;2024-02-15T07:20:52;9.53;;;2.33;;
7669;SDS011;3877;42.562;27.636;2024-02-15T07:23:19;3.20;;;1.80;;
7669;SDS011;3877;42.562;27.636;2024-02-15T07:25:46;4.20;;;2.20;;
7669;SDS011;3877;42.562;27.636;2024-02-15T07:28:14;4.27;;;2.50;;
7669;SDS011;3877;42.562;27.636;2024-02-15T07:30:41;2.40;;;1.70;;
7669;SDS011;3877;42.562;27.636;2024-02-15T07:33:09;2.27;;;2.07;;
7669;SDS011;3877;42.562;27.636;2024-02-15T07:35:36;1.97;;;1.70;;
7669;SDS011;3877;42.562;27.636;2024-02-15T07:38:03;3.53;;;2.30;;
7669;SDS011;3877;42.562;27.636;2024-02-15T07:40:31;6.90;;;2.70;;
7669;SDS011;3877;42.562;27.636;2024-02-15T07:42:58;2.33;;;1.93;;
7669;SDS011;3877;42.562;27.636;2024-02-15T07:45:25;3.87;;;2.40;;
7669;SDS011;3877;42.562;27.636;2024-02-15T07:47:54;6.53;;;2.70;;
7669;SDS011;3877;42.562;27.636;2024-02-15T07:50:22;5.60;;;2.90;;
7669;SDS011;3877;42.562;27.636;2024-02-15T07:52:49;7.67;;;2.33;;
7669;SDS011;3877;42.562;27.636;2024-02-15T07:55:16;3.20;;;2.20;;
7669;SDS011;3877;42.562;27.636;2024-02-15T07:57:43;4.50;;;2.27;;
7669;SDS011;3877;42.562;27.636;2024-02-15T08:00:12;4.77;;;2.13;;
7669;SDS011;3877;42.562;27.636;2024-02-15T08:02:38;4.53;;;3.00;;
7669;SDS011;3877;42.562;27.636;2024-02-15T08:05:07;4.60;;;3.00;;
7669;SDS011;3877;42.562;27.636;2024-02-15T08:07:40;3.83;;;2.47;;
7669;SDS011;3877;42.562;27.636;2024-02-15T08:10:08;3.80;;;2.63;;
7669;SDS011;3877;42.562;27.636;2024-02-15T08:12:38;3.20;;;2.73;;
7669;SDS011;3877;42.562;27.636;2024-02-15T08:15:05;7.43;;;2.23;;
7669;SDS011;3877;42.562;27.636;2024-02-15T08:17:37;4.87;;;2.80;;
7669;SDS011;3877;42.562;27.636;2024-02-15T08:20:05;3.13;;;2.50;;
7669;SDS011;3877;42.562;27.636;2024-02-15T08:22:32;3.60;;;2.43;;
7669;SDS011;3877;42.562;27.636;2024-02-15T08:25:01;3.27;;;2.47;;
7669;SDS011;3877;42.562;27.636;2024-02-15T08:27:30;5.80;;;3.07;;
7669;SDS011;3877;42.562;27.636;2024-02-15T08:29:59;4.17;;;2.73;;
7669;SDS011;3877;42.562;27.636;2024-02-15T08:32:28;9.23;;;4.00;;
7669;SDS011;3877;42.562;27.636;2024-02-15T08:34:56;6.87;;;3.07;;
7669;SDS011;3877;42.562;27.636;2024-02-15T08:37:22;5.20;;;3.07;;
7669;SDS011;3877;42.562;27.636;2024-02-15T08:39:49;4.03;;;2.73;;
7669;SDS011;3877;42.562;27.636;2024-02-15T08:42:19;4.60;;;2.97;;
7669;SDS011;3877;42.562;27.636;2024-02-15T08:44:47;10.17;;;3.70;;
7669;SDS011;3877;42.562;27.636;2024-02-15T08:47:14;5.00;;;3.40;;
7669;SDS011;3877;42.562;27.636;2024-02-15T08:49:41;4.73;;;2.80;;
7669;SDS011;3877;42.562;27.636;2024-02-15T08:52:11;3.43;;;2.77;;
7669;SDS011;3877;42.562;27.636;2024-02-15T08:54:38;4.57;;;3.33;;
7669;SDS011;3877;42.562;27.636;2024-02-15T08:57:06;3.33;;;2.80;;
7669;SDS011;3877;42.562;27.636;2024-02-15T08:59:34;5.00;;;3.43;;
7669;SDS011;3877;42.562;27.636;2024-02-15T09:02:01;5.10;;;3.07;;
7669;SDS011;3877;42.562;27.636;2024-02-15T09:04:30;4.97;;;3.03;;
7669;SDS011;3877;42.562;27.636;2024-02-15T09:06:57;4.50;;;2.87;;
7669;SDS011;3877;42.562;27.636;2024-02-15T09:09:26;4.23;;;3.20;;
7669;SDS011;3877;42.562;27.636;2024-02-15T09:11:53;5.57;;;3.10;;
7669;SDS011;3877;42.562;27.636;2024-02-15T09:14:20;4.33;;;3.07;;
7669;SDS011;3877;42.562;27.636;2024-02-15T09:16:49;5.40;;;2.70;;
7669;SDS011;3877;42.562;27.636;2024-02-15T09:19:16;6.20;;;3.47;;
7669;SDS011;3877;42.562;27.636;2024-02-15T09:21:44;3.50;;;2.70;;
7669;SDS011;3877;42.562;27.636;2024-02-15T09:24:11;5.03;;;3.00;;
7669;SDS011;3877;42.562;27.636;2024-02-15T09:26:38;4.37;;;3.20;;
7669;SDS011;3877;42.562;27.636;2024-02-15T09:29:05;8.97;;;3.87;;
7669;SDS011;3877;42.562;27.636;2024-02-15T09:31:32;6.43;;;3.13;;
7669;SDS011;3877;42.562;27.636;2024-02-15T09:34:01;6.50;;;3.60;;
7669;SDS011;3877;42.562;27.636;2024-02-15T09:36:33;5.37;;;2.90;;
7669;SDS011;3877;42.562;27.636;2024-02-15T09:39:01;5.17;;;3.00;;
7669;SDS011;3877;42.562;27.636;2024-02-15T09:41:27;4.47;;;2.93;;
7669;SDS011;3877;42.562;27.636;2024-02-15T09:43:54;4.47;;;3.40;;
7669;SDS011;3877;42.562;27.636;2024-02-15T09:46:22;5.20;;;3.03;;
7669;SDS011;3877;42.562;27.636;2024-02-15T09:48:50;4.27;;;2.33;;
7669;SDS011;3877;42.562;27.636;2024-02-15T09:51:25;3.13;;;2.53;;
7669;SDS011;3877;42.562;27.636;2024-02-15T09:53:52;7.13;;;3.17;;
7669;SDS011;3877;42.562;27.636;2024-02-15T09:56:20;6.30;;;3.30;;
7669;SDS011;3877;42.562;27.636;2024-02-15T09:58:49;6.83;;;3.87;;
7669;SDS011;3877;42.562;27.636;2024-02-15T10:01:18;3.20;;;2.37;;
7669;SDS011;3877;42.562;27.636;2024-02-15T10:03:46;4.77;;;2.50;;
7669;SDS011;3877;42.562;27.636;2024-02-15T10:06:16;5.40;;;2.93;;
7669;SDS011;3877;42.562;27.636;2024-02-15T10:08:45;3.93;;;2.33;;
7669;SDS011;3877;42.562;27.636;2024-02-15T10:11:12;4.50;;;2.60;;
7669;SDS011;3877;42.562;27.636;2024-02-15T10:13:40;5.87;;;3.13;;
7669;SDS011;3877;42.562;27.636;2024-02-15T10:16:16;7.30;;;3.63;;
7669;SDS011;3877;42.562;27.636;2024-02-15T10:18:43;7.30;;;3.30;;
7669;SDS011;3877;42.562;27.636;2024-02-15T10:21:10;3.97;;;2.67;;
7669;SDS011;3877;42.562;27.636;2024-02-15T10:24:03;5.97;;;3.27;;
7669;SDS011;3877;42.562;27.636;2024-02-15T10:26:31;3.47;;;2.33;;
7669;SDS011;3877;42.562;27.636;2024-02-15T10:29:07;6.67;;;3.60;;
7669;SDS011;3877;42.562;27.636;2024-02-15T10:31:34;9.57;;;3.70;;
7669;SDS011;3877;42.562;27.636;2024-02-15T10:34:02;10.50;;;3.87;;
7669;SDS011;3877;42.562;27.636;2024-02-15T10:36:30;8.27;;;3.70;;
7669;SDS011;3877;42.562;27.636;2024-02-15T10:39:11;17.07;;;4.60;;
7669;SDS011;3877;42.562;27.636;2024-02-15T10:41:43;10.70;;;3.80;;
7669;SDS011;3877;42.562;27.636;2024-02-15T10:44:12;7.63;;;2.80;;
7669;SDS011;3877;42.562;27.636;2024-02-15T10:46:59;11.10;;;3.30;;
7669;SDS011;3877;42.562;27.636;2024-02-15T10:49:31;8.47;;;3.93;;
7669;SDS011;3877;42.562;27.636;2024-02-15T10:51:58;13.40;;;3.70;;
7669;SDS011;3877;42.562;27.636;2024-02-15T10:54:40;11.90;;;3.40;;
7669;SDS011;3877;42.562;27.636;2024-02-15T10:57:07;13.33;;;3.77;;
7669;SDS011;3877;42.562;27.636;2024-02-15T10:59:35;5.73;;;3.73;;
7669;SDS011;3877;42.562;27.636;2024-02-15T11:02:11;4.87;;;2.93;;
7669;SDS011;3877;42.562;27.636;2024-02-15T11:04:43;8.27;;;2.83;;
7669;SDS011;3877;42.562;27.636;2024-02-15T11:07:11;3.00;;;2.60;;
7669;SDS011;3877;42.562;27.636;2024-02-15T11:09:40;7.70;;;3.47;;
7669;SDS011;3877;42.562;27.636;2024-02-15T11:12:08;6.97;;;3.63;;
7669;SDS011;3877;42.562;27.636;2024-02-15T11:14:37;5.87;;;3.20;;
7669;SDS011;3877;42.562;27.636;2024-02-15T11:17:04;13.37;;;3.20;;
7669;SDS011;3877;42.562;27.636;2024-02-15T11:19:44;6.30;;;3.37;;
7669;SDS011;3877;42.562;27.636;2024-02-15T11:22:12;7.60;;;3.40;;
7669;SDS011;3877;42.562;27.636;2024-02-15T11:24:51;7.67;;;4.10;;
7669;SDS011;3877;42.562;27.636;2024-02-15T11:27:25;9.03;;;3.97;;
7669;SDS011;3877;42.562;27.636;2024-02-15T11:29:54;4.13;;;3.20;;
7669;SDS011;3877;42.562;27.636;2024-02-15T11:32:40;8.50;;;4.37;;
7669;SDS011;3877;42.562;27.636;2024-02-15T11:35:09;6.20;;;4.47;;
7669;SDS011;3877;42.562;27.636;2024-02-15T11:46:06;8.20;;;4.80;;
7669;SDS011;3877;42.562;27.636;2024-02-15T11:48:36;9.43;;;5.53;;
7669;SDS011;3877;42.562;27.636;2024-02-15T11:51:06;6.93;;;4.27;;
7669;SDS011;3877;42.562;27.636;2024-02-15T11:53:36;6.30;;;4.53;;
7669;SDS011;3877;42.562;27.636;2024-02-15T11:56:05;8.50;;;5.00;;
7669;SDS011;3877;42.562;27.636;2024-02-15T11:58:34;8.80;;;5.53;;
7669;SDS011;3877;42.562;27.636;2024-02-15T12:01:18;12.10;;;6.50;;
7669;SDS011;3877;42.562;27.636;2024-02-15T12:04:03;8.77;;;6.50;;
7669;SDS011;3877;42.562;27.636;2024-02-15T12:06:48;9.87;;;6.77;;
7669;SDS011;3877;42.562;27.636;2024-02-15T12:09:32;12.10;;;6.17;;
7669;SDS011;3877;42.562;27.636;2024-02-15T12:12:16;8.43;;;5.90;;
7669;SDS011;3877;42.562;27.636;2024-02-15T12:18:17;10.53;;;7.47;;
7669;SDS011;3877;42.562;27.636;2024-02-15T12:21:01;12.40;;;8.13;;
7669;SDS011;3877;42.562;27.636;2024-02-15T12:23:29;10.73;;;5.83;;
7669;SDS011;3877;42.562;27.636;2024-02-15T12:25:59;10.97;;;7.40;;
7669;SDS011;3877;42.562;27.636;2024-02-15T12:28:26;10.30;;;8.27;;
7669;SDS011;3877;42.562;27.636;2024-02-15T12:30:54;12.13;;;7.97;;
7669;SDS011;3877;42.562;27.636;2024-02-15T12:33:26;9.57;;;6.93;;
7669;SDS011;3877;42.562;27.636;2024-02-15T12:36:02;13.13;;;5.97;;
7669;SDS011;3877;42.562;27.636;2024-02-15T12:38:31;19.60;;;8.70;;
7669;SDS011;3877;42.562;27.636;2024-02-15T12:40:59;11.73;;;8.67;;
7669;SDS011;3877;42.562;27.636;2024-02-15T12:43:27;9.63;;;7.53;;
7669;SDS011;3877;42.562;27.636;2024-02-15T12:45:54;11.87;;;7.83;;
7669;SDS011;3877;42.562;27.636;2024-02-15T12:48:22;11.87;;;8.00;;
7669;SDS011;3877;42.562;27.636;2024-02-15T12:50:51;9.27;;;7.13;;
7669;SDS011;3877;42.562;27.636;2024-02-15T12:53:21;10.23;;;7.20;;
7669;SDS011;3877;42.562;27.636;2024-02-15T12:55:52;11.30;;;7.43;;
7669;SDS011;3877;42.562;27.636;2024-02-15T12:58:20;9.30;;;6.63;;
7669;SDS011;3877;42.562;27.636;2024-02-15T13:00:50;8.97;;;6.97;;
7669;SDS011;3877;42.562;27.636;2024-02-15T13:03:17;10.70;;;7.20;;
7669;SDS011;3877;42.562;27.636;2024-02-15T13:05:44;11.43;;;8.00;;
7669;SDS011;3877;42.562;27.636;2024-02-15T13:08:15;10.00;;;6.90;;
7669;SDS011;3877;42.562;27.636;2024-02-15T13:10:43;13.80;;;8.13;;
7669;SDS011;3877;42.562;27.636;2024-02-15T13:13:10;10.67;;;7.93;;
7669;SDS011;3877;42.562;27.636;2024-02-15T13:15:39;9.43;;;7.00;;
7669;SDS011;3877;42.562;27.636;2024-02-15T13:18:06;12.97;;;8.17;;
7669;SDS011;3877;42.562;27.636;2024-02-15T13:20:35;10.80;;;7.13;;
7669;SDS011;3877;42.562;27.636;2024-02-15T13:23:03;10.33;;;7.17;;
7669;SDS011;3877;42.562;27.636;2024-02-15T13:25:35;10.00;;;7.80;;
7669;SDS011;3877;42.562;27.636;2024-02-15T13:28:05;9.53;;;7.27;;
7669;SDS011;3877;42.562;27.636;2024-02-15T13:30:34;12.87;;;7.63;;
7669;SDS011;3877;42.562;27.636;2024-02-15T13:33:01;9.37;;;7.67;;
7669;SDS011;3877;42.562;27.636;2024-02-15T13:35:28;9.10;;;7.27;;
7669;SDS011;3877;42.562;27.636;2024-02-15T13:37:55;14.23;;;8.73;;
7669;SDS011;3877;42.562;27.636;2024-02-15T13:40:23;10.53;;;7.33;;
7669;SDS011;3877;42.562;27.636;2024-02-15T13:42:53;11.03;;;7.87;;
7669;SDS011;3877;42.562;27.636;2024-02-15T13:45:23;8.67;;;7.70;;
7669;SDS011;3877;42.562;27.636;2024-02-15T13:47:55;11.93;;;7.60;;
7669;SDS011;3877;42.562;27.636;2024-02-15T13:50:22;14.63;;;7.57;;
7669;SDS011;3877;42.562;27.636;2024-02-15T13:52:50;12.80;;;7.40;;
7669;SDS011;3877;42.562;27.636;2024-02-15T13:55:17;11.87;;;7.23;;
7669;SDS011;3877;42.562;27.636;2024-02-15T13:57:46;13.03;;;7.23;;
7669;SDS011;3877;42.562;27.636;2024-02-15T14:00:15;8.80;;;6.70;;
7669;SDS011;3877;42.562;27.636;2024-02-15T14:02:48;11.23;;;8.07;;
7669;SDS011;3877;42.562;27.636;2024-02-15T14:05:15;11.00;;;6.97;;
7669;SDS011;3877;42.562;27.636;2024-02-15T14:07:46;8.90;;;6.93;;
7669;SDS011;3877;42.562;27.636;2024-02-15T14:10:13;10.10;;;7.53;;
7669;SDS011;3877;42.562;27.636;2024-02-15T14:12:40;11.70;;;7.23;;
7669;SDS011;3877;42.562;27.636;2024-02-15T14:15:07;17.53;;;8.13;;
7669;SDS011;3877;42.562;27.636;2024-02-15T14:17:35;10.33;;;7.37;;
7669;SDS011;3877;42.562;27.636;2024-02-15T14:20:02;11.13;;;7.80;;
7669;SDS011;3877;42.562;27.636;2024-02-15T14:22:33;9.90;;;7.47;;
7669;SDS011;3877;42.562;27.636;2024-02-15T14:25:00;10.07;;;7.53;;
7669;SDS011;3877;42.562;27.636;2024-02-15T14:27:29;11.60;;;8.50;;
7669;SDS011;3877;42.562;27.636;2024-02-15T14:29:57;10.43;;;6.27;;
7669;SDS011;3877;42.562;27.636;2024-02-15T14:32:43;9.40;;;7.40;;
7669;SDS011;3877;42.562;27.636;2024-02-15T14:35:30;10.90;;;8.17;;
7669;SDS011;3877;42.562;27.636;2024-02-15T14:38:00;12.00;;;7.93;;
7669;SDS011;3877;42.562;27.636;2024-02-15T14:40:28;9.13;;;7.53;;
7669;SDS011;3877;42.562;27.636;2024-02-15T14:42:55;11.13;;;7.70;;
7669;SDS011;3877;42.562;27.636;2024-02-15T14:45:25;20.03;;;8.40;;
7669;SDS011;3877;42.562;27.636;2024-02-15T14:47:53;12.10;;;7.17;;
7669;SDS011;3877;42.562;27.636;2024-02-15T14:50:20;14.40;;;6.73;;
7669;SDS011;3877;42.562;27.636;2024-02-15T14:52:49;9.67;;;7.60;;
7669;SDS011;3877;42.562;27.636;2024-02-15T14:55:17;9.40;;;7.50;;
7669;SDS011;3877;42.562;27.636;2024-02-15T14:57:44;12.43;;;6.47;;
7669;SDS011;3877;42.562;27.636;2024-02-15T15:00:11;8.37;;;7.10;;
7669;SDS011;3877;42.562;27.636;2024-02-15T15:02:39;8.20;;;6.00;;
7669;SDS011;3877;42.562;27.636;2024-02-15T15:05:09;12.13;;;6.77;;
7669;SDS011;3877;42.562;27.636;2024-02-15T15:07:53;9.80;;;7.13;;
7669;SDS011;3877;42.562;27.636;2024-02-15T15:10:37;9.73;;;6.07;;
7669;SDS011;3877;42.562;27.636;2024-02-15T15:13:21;8.07;;;6.77;;
7669;SDS011;3877;42.562;27.636;2024-02-15T15:15:48;9.57;;;6.87;;
7669;SDS011;3877;42.562;27.636;2024-02-15T15:18:16;10.97;;;7.10;;
7669;SDS011;3877;42.562;27.636;2024-02-15T15:20:45;10.13;;;7.27;;
7669;SDS011;3877;42.562;27.636;2024-02-15T15:23:12;8.50;;;6.43;;